OAZ weather

Camp Bastion Airport
Helmand Province, Afghanistan

Public forecast

Using degrees Celsius for public forecast. Weather courtesy of forecast.io.

Closest aviation weather report (METAR) to Camp Bastion Airport

Closest report is Kandahar Airport, 85.7 nm (158.7 km) ESE. Retrieved 2020/01/20 02:15 UTC (9 minutes ago):

OAKN 200215Z 03009G19KT 9999 -DZ BKN060 OVC075 04/M01 A3006 RMK AO2A DZB15 SLP172 WND DATA ESTMD

Closest aviation forecast (TAF) to Camp Bastion Airport

Closest forecast is Kandahar Airport, 85.7 nm (158.7 km) ESE. Retrieved 2020-01-20 23:18 UTC (0 seconds ago):

TAF TAF OAKN 192312Z 1923/2105 05012G18KT 9999 VCSH FEW080 BKN100 QNH3003INS BECMG 2002/2003 05012KT 5000 HZ VCSH FEW050 BKN100 QNH3001INS TEMPO 2003/2007 05015G25KT 3000 HZ BECMG 2006/2007 05009KT 9000 -RA SCT015 BKN030 OVC070 620409 QNH3000INS BECMG 2014/2015 05009KT 9999 VCSH SCT015 OVC030 QNH3001INS TEMPO 2018/2023 -RA BKN015 BECMG 2022/2023 05009KT 8000 BR BKN020 OVC050 QNH3002INS TX09/2011Z TN02/2002Z